Mason, Kentucky
Current Conditions -  °F | °C
As of 3:13 PM on Friday 31 Oct 2014 (Local Time) from KFFT Reporting Station
Light Rain Light Rain  
Wind Chill: 33°   Ceiling: 1100
Heat Index: 40°   Visibility: 8mi
Dew Point: 37°   Wind: 12mph
Humidity: 89%   Direction: 310°NW
Pressure: 29.94"   Gusts: 23mph
Location:  38.58°N, 84.59°W
Report Text: KFFT 311913Z AUTO 31010G20KT 8SM -RA BKN011 BKN016 OVC027 04/03 A2994 RMK AO2 P0001 T00440028
Loading
Personal Weather Stations






























Interactive Weather Map
Tropical Storm Tracking
New forecast layout! Learn more

10-Day Weather Forecast

Advertisements
Track Severe Weather on mobile